createdAt,value
2019-04-21T00:00:29.713Z,1.93
2019-04-21T00:03:08.837Z,1.80
2019-04-21T00:05:54.534Z,1.33
2019-04-21T00:08:33.540Z,1.70
2019-04-21T00:10:57.821Z,1.50
2019-04-21T00:13:20.747Z,1.70
2019-04-21T00:15:44.479Z,1.67
2019-04-21T00:18:46.867Z,1.17
2019-04-21T00:21:11.060Z,1.70
2019-04-21T00:23:53.762Z,1.50
2019-04-21T00:26:23.814Z,2.23
2019-04-21T00:29:05.129Z,1.47
2019-04-21T00:31:25.410Z,1.73
2019-04-21T00:33:43.332Z,2.57
2019-04-21T00:36:18.571Z,1.60
2019-04-21T00:39:18.660Z,1.53
2019-04-21T00:41:36.802Z,1.50
2019-04-21T00:44:00.679Z,1.53
2019-04-21T00:46:31.231Z,1.53
2019-04-21T00:49:06.086Z,2.60
2019-04-21T00:52:03.625Z,1.87
2019-04-21T00:54:20.617Z,1.70
2019-04-21T00:56:49.768Z,1.57
2019-04-21T00:59:20.033Z,1.83
2019-04-21T01:01:47.768Z,1.97
2019-04-21T01:04:23.638Z,2.07
2019-04-21T01:06:55.963Z,1.60
2019-04-21T01:09:20.124Z,1.30
2019-04-21T01:11:56.403Z,1.93
2019-04-21T01:14:35.993Z,1.60
2019-04-21T01:16:57.715Z,1.67
2019-04-21T01:19:25.196Z,1.40
2019-04-21T01:21:38.402Z,2.23
2019-04-21T01:24:16.943Z,1.60
2019-04-21T01:26:47.136Z,2.30
2019-04-21T01:29:33.247Z,1.70
2019-04-21T01:32:05.045Z,1.53
2019-04-21T01:34:33.227Z,1.77
2019-04-21T01:36:58.439Z,1.70
2019-04-21T01:39:40.724Z,1.90
2019-04-21T01:42:10.321Z,1.43
2019-04-21T01:44:43.070Z,1.70
2019-04-21T01:47:08.820Z,2.63
2019-04-21T01:49:29.544Z,1.90
2019-04-21T01:52:23.752Z,1.50
2019-04-21T01:55:13.403Z,1.60
2019-04-21T01:58:01.408Z,1.50
2019-04-21T02:00:51.858Z,1.60
2019-04-21T02:03:45.393Z,1.60
2019-04-21T02:06:07.660Z,1.67
2019-04-21T02:08:28.802Z,1.50
2019-04-21T02:11:07.521Z,1.60
2019-04-21T02:13:35.351Z,1.60
2019-04-21T02:16:06.562Z,1.50
2019-04-21T02:18:34.008Z,1.73
2019-04-21T02:21:21.874Z,1.83
2019-04-21T02:24:23.574Z,1.67
2019-04-21T02:26:45.682Z,1.37
2019-04-21T02:29:22.968Z,1.50
2019-04-21T02:32:07.957Z,1.80
2019-04-21T02:34:38.306Z,2.87
2019-04-21T02:37:17.679Z,1.80
2019-04-21T02:42:05.248Z,1.50
2019-04-21T02:47:14.644Z,2.17
2019-04-21T02:50:00.327Z,2.80
2019-04-21T02:52:20.148Z,1.60
2019-04-21T02:57:19.006Z,1.70
2019-04-21T02:59:58.273Z,1.60
2019-04-21T03:02:42.815Z,1.50
2019-04-21T03:05:31.033Z,2.03
2019-04-21T03:13:03.613Z,1.87
2019-04-21T03:15:33.146Z,1.93
2019-04-21T03:18:18.750Z,1.63
2019-04-21T03:20:35.758Z,2.03
2019-04-21T03:23:07.802Z,1.90
2019-04-21T03:28:11.709Z,1.97
2019-04-21T03:33:43.159Z,1.80
2019-04-21T03:38:14.742Z,2.00
2019-04-21T03:40:44.362Z,1.80
2019-04-21T03:43:12.685Z,1.80
2019-04-21T03:48:21.728Z,2.20
2019-04-21T03:53:22.695Z,1.93
2019-04-21T03:55:53.230Z,1.80
2019-04-21T03:58:34.725Z,2.00
2019-04-21T04:04:22.432Z,2.13
2019-04-21T04:09:44.479Z,2.30
2019-04-21T04:12:19.664Z,2.93
2019-04-21T04:14:45.968Z,1.80
2019-04-21T04:17:24.051Z,2.20
2019-04-21T04:24:55.581Z,2.30
2019-04-21T04:29:53.033Z,3.37
2019-04-21T04:32:23.547Z,1.83
2019-04-21T04:35:02.135Z,2.03
2019-04-21T04:40:13.393Z,2.10
2019-04-21T04:45:40.615Z,2.63
2019-04-21T04:48:09.155Z,2.40
2019-04-21T04:50:53.548Z,2.00
2019-04-21T04:53:12.651Z,2.00
2019-04-21T04:56:02.209Z,2.07
2019-04-21T04:58:23.434Z,2.33
2019-04-21T05:01:01.645Z,2.30
2019-04-21T05:09:05.047Z,2.47
2019-04-21T05:14:02.689Z,2.40
2019-04-21T05:23:51.183Z,5.27
2019-04-21T05:26:18.571Z,2.60
2019-04-21T05:28:49.791Z,3.70
2019-04-21T05:31:50.664Z,3.00
2019-04-21T05:34:18.596Z,3.30
2019-04-21T05:37:01.998Z,3.60
2019-04-21T05:39:50.803Z,2.60
2019-04-21T05:42:10.475Z,2.50
2019-04-21T05:45:01.628Z,2.47
2019-04-21T05:47:35.334Z,2.60
2019-04-21T05:50:06.558Z,2.67
2019-04-21T05:52:44.961Z,2.67
2019-04-21T05:55:34.215Z,2.30
2019-04-21T05:57:58.279Z,2.50
2019-04-21T06:00:50.779Z,2.67
2019-04-21T06:03:04.224Z,2.60
2019-04-21T06:05:39.187Z,3.00
2019-04-21T06:08:00.496Z,2.83
2019-04-21T06:10:40.436Z,2.67
2019-04-21T06:13:13.695Z,2.33
2019-04-21T06:15:47.313Z,4.63
2019-04-21T06:18:13.850Z,2.40
2019-04-21T06:20:44.492Z,2.90
2019-04-21T06:23:11.961Z,2.53
2019-04-21T06:25:55.357Z,2.67
2019-04-21T06:28:14.850Z,2.63
2019-04-21T06:30:57.991Z,2.73
2019-04-21T06:33:19.931Z,2.70
2019-04-21T06:39:12.164Z,3.80
2019-04-21T06:41:43.238Z,3.20
2019-04-21T06:44:23.964Z,3.00
2019-04-21T06:46:43.774Z,3.00
2019-04-21T06:49:08.107Z,3.03
2019-04-21T06:51:44.339Z,3.40
2019-04-21T06:54:14.363Z,3.13
2019-04-21T06:56:47.894Z,3.13
2019-04-21T06:59:13.437Z,3.43
2019-04-21T07:01:55.287Z,3.60
2019-04-21T07:09:25.702Z,2.53
2019-04-21T07:11:52.860Z,2.90
2019-04-21T07:16:56.322Z,2.50
2019-04-21T07:21:57.380Z,2.33
2019-04-21T07:24:34.984Z,2.30
2019-04-21T07:27:02.404Z,2.23
2019-04-21T07:29:37.828Z,4.10
2019-04-21T07:32:04.532Z,2.97
2019-04-21T07:34:51.791Z,2.60
2019-04-21T07:37:08.670Z,2.70
2019-04-21T07:39:34.037Z,2.53
2019-04-21T07:42:04.614Z,2.43
2019-04-21T07:44:37.812Z,2.77
2019-04-21T07:47:15.568Z,3.73
2019-04-21T07:49:58.730Z,2.60
2019-04-21T07:52:48.696Z,2.30
2019-04-21T07:57:39.109Z,2.70
2019-04-21T08:02:49.183Z,2.20
2019-04-21T08:05:20.581Z,2.53
2019-04-21T08:07:52.125Z,2.50
2019-04-21T08:10:22.554Z,2.50
2019-04-21T08:12:48.207Z,2.77
2019-04-21T08:15:30.628Z,2.97
2019-04-21T08:17:56.655Z,2.47
2019-04-21T08:20:24.156Z,2.33
2019-04-21T08:23:02.521Z,3.03
2019-04-21T08:25:54.659Z,4.37
2019-04-21T08:28:01.549Z,3.10
2019-04-21T08:30:43.028Z,5.37
2019-04-21T08:33:08.656Z,2.40
2019-04-21T08:35:52.921Z,3.80
2019-04-21T08:38:08.756Z,3.70
2019-04-21T08:40:40.902Z,4.40
2019-04-21T08:43:12.636Z,3.90
2019-04-21T08:45:43.242Z,4.30
2019-04-21T08:48:12.420Z,3.97
2019-04-21T08:50:47.605Z,4.40
2019-04-21T08:53:15.598Z,4.20
2019-04-21T08:56:10.030Z,4.80
2019-04-21T08:59:03.770Z,4.20
2019-04-21T09:01:33.019Z,5.50
2019-04-21T09:04:07.499Z,5.73
2019-04-21T09:06:57.176Z,5.60
2019-04-21T09:09:14.382Z,5.80
2019-04-21T09:11:40.414Z,4.67
2019-04-21T09:14:13.609Z,4.53
2019-04-21T09:16:44.375Z,5.50
2019-04-21T09:19:20.252Z,5.07
2019-04-21T09:21:52.953Z,5.17
2019-04-21T09:24:23.337Z,6.17
2019-04-21T09:26:52.933Z,6.10
2019-04-21T09:29:11.856Z,6.00
2019-04-21T09:31:39.736Z,6.17
2019-04-21T09:34:08.409Z,6.63
2019-04-21T09:36:43.158Z,5.63
2019-04-21T09:39:16.822Z,6.43
2019-04-21T09:41:43.061Z,5.63
2019-04-21T09:44:17.245Z,8.70
2019-04-21T09:46:50.704Z,9.40
2019-04-21T09:49:20.582Z,8.47
2019-04-21T09:51:46.510Z,10.00
2019-04-21T09:54:23.067Z,9.27
2019-04-21T09:56:54.955Z,9.33
2019-04-21T09:59:26.178Z,13.73
2019-04-21T10:02:01.538Z,12.03
2019-04-21T10:04:21.268Z,10.00
2019-04-21T10:06:51.951Z,14.70
2019-04-21T10:09:24.275Z,10.50
2019-04-21T10:11:54.901Z,10.07
2019-04-21T10:14:26.418Z,12.87
2019-04-21T10:17:15.093Z,11.20
2019-04-21T10:19:44.784Z,12.10
2019-04-21T10:22:14.827Z,11.00
2019-04-21T10:24:44.665Z,13.53
2019-04-21T10:27:14.767Z,10.27
2019-04-21T10:29:45.338Z,12.67
2019-04-21T10:32:18.298Z,12.13
2019-04-21T10:34:47.484Z,8.67
2019-04-21T10:37:17.104Z,8.67
2019-04-21T10:39:47.543Z,10.20
2019-04-21T10:42:17.435Z,10.07
2019-04-21T10:44:47.297Z,12.80
2019-04-21T10:47:18.351Z,12.50
2019-04-21T10:49:48.661Z,9.27
2019-04-21T10:52:22.927Z,12.13
2019-04-21T10:55:12.477Z,12.50
2019-04-21T10:57:26.965Z,10.60
2019-04-21T10:59:59.431Z,11.83
2019-04-21T11:02:39.115Z,13.10
2019-04-21T11:05:09.067Z,9.50
2019-04-21T11:08:01.234Z,12.43
2019-04-21T11:10:36.565Z,10.10
2019-04-21T11:13:24.430Z,10.37
2019-04-21T11:15:55.194Z,10.10
2019-04-21T11:18:25.972Z,11.97
2019-04-21T11:20:55.556Z,11.47
2019-04-21T11:23:25.123Z,10.40
2019-04-21T11:25:55.785Z,26.63
2019-04-21T11:28:25.371Z,45.60
2019-04-21T11:30:54.966Z,31.47
2019-04-21T11:33:24.954Z,31.13
2019-04-21T11:35:55.145Z,37.93
2019-04-21T11:38:51.322Z,29.13
2019-04-21T11:41:05.742Z,31.17
2019-04-21T11:43:35.302Z,25.67
2019-04-21T11:46:06.424Z,24.40
2019-04-21T11:48:36.515Z,22.80
2019-04-21T11:51:06.870Z,21.60
2019-04-21T11:53:37.084Z,24.33
2019-04-21T11:56:06.957Z,22.53
2019-04-21T11:58:36.548Z,19.47
2019-04-21T12:01:07.701Z,21.40
2019-04-21T12:03:37.767Z,18.53
2019-04-21T12:06:07.388Z,20.27
2019-04-21T12:08:41.296Z,22.37
2019-04-21T12:11:09.426Z,20.57
2019-04-21T12:13:40.241Z,11.33
2019-04-21T12:16:10.837Z,15.77
2019-04-21T12:18:40.778Z,15.40
2019-04-21T12:21:11.464Z,13.67
2019-04-21T12:23:41.138Z,14.03
2019-04-21T12:26:11.099Z,12.90
2019-04-21T12:28:41.787Z,14.13
2019-04-21T12:31:31.623Z,13.97
2019-04-21T12:34:03.667Z,13.43
2019-04-21T12:36:33.968Z,15.47
2019-04-21T12:39:06.927Z,14.40
2019-04-21T12:41:36.303Z,16.97
2019-04-21T12:44:06.717Z,10.43
2019-04-21T12:46:36.330Z,13.10
2019-04-21T12:49:05.914Z,12.87
2019-04-21T12:51:35.739Z,11.23
2019-04-21T12:54:05.879Z,11.63
2019-04-21T12:56:35.794Z,10.47
2019-04-21T12:59:05.394Z,12.63
2019-04-21T13:01:35.072Z,10.60
2019-04-21T13:04:05.812Z,14.70
2019-04-21T13:06:37.257Z,13.23
2019-04-21T13:09:10.823Z,11.20
2019-04-21T13:11:39.269Z,9.03
2019-04-21T13:14:09.038Z,9.27
2019-04-21T13:16:39.269Z,9.53
2019-04-21T13:19:09.325Z,9.23
2019-04-21T13:21:40.268Z,8.93
2019-04-21T13:24:09.961Z,9.83
2019-04-21T13:26:48.401Z,7.33
2019-04-21T13:29:12.175Z,8.23
2019-04-21T13:31:42.583Z,10.80
2019-04-21T13:34:13.667Z,8.00
2019-04-21T13:36:43.670Z,6.80
2019-04-21T13:39:55.233Z,6.10
2019-04-21T13:42:13.218Z,7.57
2019-04-21T13:44:35.211Z,6.40
2019-04-21T13:47:04.970Z,5.83
2019-04-21T13:49:35.188Z,6.07
2019-04-21T13:52:04.983Z,6.63
2019-04-21T13:54:35.673Z,5.80
2019-04-21T13:57:05.360Z,7.77
2019-04-21T13:59:36.338Z,8.53
2019-04-21T14:02:06.872Z,4.87
2019-04-21T14:04:37.771Z,4.90
2019-04-21T14:07:08.185Z,4.87
2019-04-21T14:09:47.687Z,4.87
2019-04-21T14:12:09.653Z,5.20
2019-04-21T14:14:39.367Z,10.77
2019-04-21T14:17:09.076Z,10.10
2019-04-21T14:19:39.463Z,7.70
2019-04-21T14:22:11.663Z,7.70
2019-04-21T14:24:41.643Z,6.20
2019-04-21T14:27:12.134Z,6.17
2019-04-21T14:29:41.851Z,6.43
2019-04-21T14:32:11.384Z,5.10
2019-04-21T14:34:41.990Z,4.10
2019-04-21T14:37:13.034Z,5.17
2019-04-21T14:39:55.267Z,5.00
2019-04-21T14:42:14.465Z,5.27
2019-04-21T14:44:45.085Z,5.60
2019-04-21T14:47:31.545Z,5.53
2019-04-21T14:50:24.225Z,5.50
2019-04-21T14:53:12.226Z,7.53
2019-04-21T14:55:45.709Z,5.33
2019-04-21T14:58:17.085Z,5.37
2019-04-21T15:00:53.096Z,7.67
2019-04-21T15:03:23.647Z,8.17
2019-04-21T15:05:53.556Z,4.47
2019-04-21T15:08:23.173Z,4.67
2019-04-21T15:10:52.867Z,4.13
2019-04-21T15:13:23.617Z,5.53
2019-04-21T15:15:54.272Z,6.63
2019-04-21T15:18:24.260Z,4.10
2019-04-21T15:20:55.189Z,4.27
2019-04-21T15:23:26.847Z,4.40
2019-04-21T15:25:56.549Z,4.40
2019-04-21T15:28:30.725Z,4.90
2019-04-21T15:30:58.663Z,5.50
2019-04-21T15:33:28.844Z,4.40
2019-04-21T15:35:58.636Z,4.13
2019-04-21T15:38:29.739Z,4.17
2019-04-21T15:41:03.856Z,5.37
2019-04-21T15:43:30.729Z,5.03
2019-04-21T15:46:00.755Z,4.50
2019-04-21T15:48:30.932Z,4.30
2019-04-21T15:51:04.858Z,3.60
2019-04-21T15:53:32.343Z,3.67
2019-04-21T15:56:07.118Z,4.17
2019-04-21T15:58:46.432Z,5.27
2019-04-21T16:01:24.851Z,4.67
2019-04-21T16:03:58.340Z,4.53
2019-04-21T16:06:25.886Z,5.83
2019-04-21T16:08:58.990Z,4.97
2019-04-21T16:11:28.110Z,6.17
2019-04-21T16:13:57.784Z,6.87
2019-04-21T16:16:30.379Z,11.73
2019-04-21T16:18:58.634Z,8.53
2019-04-21T16:21:29.548Z,11.83
2019-04-21T16:24:00.473Z,20.03
2019-04-21T16:26:30.674Z,28.83
2019-04-21T16:29:00.298Z,25.70
2019-04-21T16:31:32.216Z,28.37
2019-04-21T16:34:02.994Z,34.47
2019-04-21T16:36:33.806Z,34.20
2019-04-21T16:39:03.492Z,34.13
2019-04-21T16:41:34.046Z,36.03
2019-04-21T16:44:05.083Z,34.90
2019-04-21T16:46:35.728Z,36.17
2019-04-21T16:49:05.446Z,33.27
2019-04-21T16:51:36.075Z,32.03
2019-04-21T16:54:23.926Z,31.50
2019-04-21T16:57:00.094Z,34.37
2019-04-21T16:59:33.014Z,32.30
2019-04-21T17:02:02.787Z,27.50
2019-04-21T17:04:33.982Z,34.77
2019-04-21T17:07:05.072Z,30.67
2019-04-21T17:09:34.779Z,25.70
2019-04-21T17:12:09.242Z,27.67
2019-04-21T17:14:53.535Z,26.93
2019-04-21T17:17:32.353Z,21.43
2019-04-21T17:19:45.596Z,23.70
2019-04-21T17:22:13.606Z,22.67
2019-04-21T17:24:44.380Z,22.27
2019-04-21T17:27:15.292Z,21.63
2019-04-21T17:29:46.279Z,22.67
2019-04-21T17:32:16.501Z,17.60
2019-04-21T17:34:46.120Z,19.87
2019-04-21T17:37:17.236Z,20.70
2019-04-21T17:39:49.186Z,16.97
2019-04-21T17:42:33.352Z,16.57
2019-04-21T17:44:51.047Z,14.93
2019-04-21T17:47:31.382Z,16.07
2019-04-21T17:50:11.763Z,14.30
2019-04-21T17:52:55.368Z,14.87
2019-04-21T17:55:27.549Z,12.80
2019-04-21T17:58:09.766Z,12.90
2019-04-21T18:01:05.552Z,10.93
2019-04-21T18:03:27.313Z,12.60
2019-04-21T18:05:43.530Z,11.73
2019-04-21T18:08:21.442Z,11.23
2019-04-21T18:10:43.994Z,13.43
2019-04-21T18:13:07.853Z,12.13
2019-04-21T18:15:49.290Z,10.70
2019-04-21T18:18:05.082Z,9.27
2019-04-21T18:20:37.732Z,11.13
2019-04-21T18:23:34.962Z,11.47
2019-04-21T18:26:01.588Z,10.07
2019-04-21T18:28:26.348Z,9.90
2019-04-21T18:31:06.951Z,9.13
2019-04-21T18:33:42.036Z,7.80
2019-04-21T18:36:31.825Z,10.37
2019-04-21T18:39:39.250Z,7.63
2019-04-21T18:42:31.191Z,8.03
2019-04-21T18:45:34.411Z,9.23
2019-04-21T18:47:59.555Z,7.00
2019-04-21T18:50:46.290Z,10.93
2019-04-21T18:53:24.506Z,8.53
2019-04-21T18:55:47.160Z,7.50
2019-04-21T18:58:15.615Z,6.70
2019-04-21T19:00:45.812Z,6.83
2019-04-21T19:03:25.323Z,6.63
2019-04-21T19:05:54.045Z,7.07
2019-04-21T19:08:40.523Z,6.10
2019-04-21T19:11:08.828Z,6.23
2019-04-21T19:14:12.711Z,6.80
2019-04-21T19:16:33.619Z,6.17
2019-04-21T19:19:24.673Z,7.63
2019-04-21T19:21:28.386Z,5.50
2019-04-21T19:24:12.163Z,5.60
2019-04-21T19:29:11.245Z,8.27
2019-04-21T19:31:39.783Z,6.53
2019-04-21T19:34:01.056Z,5.03
2019-04-21T19:36:23.535Z,5.60
2019-04-21T19:39:03.688Z,7.23
2019-04-21T19:41:38.243Z,4.93
2019-04-21T19:44:14.286Z,5.10
2019-04-21T19:46:54.498Z,5.67
2019-04-21T19:49:21.692Z,5.07
2019-04-21T19:51:40.557Z,5.07
2019-04-21T19:54:13.318Z,4.13
2019-04-21T19:56:36.549Z,6.47
2019-04-21T19:59:06.847Z,4.10
2019-04-21T20:01:37.236Z,5.77
2019-04-21T20:04:08.156Z,4.13
2019-04-21T20:06:50.238Z,4.20
2019-04-21T20:09:28.104Z,4.90
2019-04-21T20:11:53.558Z,6.43
2019-04-21T20:14:51.074Z,5.33
2019-04-21T20:16:57.777Z,6.37
2019-04-21T20:19:16.205Z,5.07
2019-04-21T20:21:47.103Z,3.73
2019-04-21T20:24:22.658Z,4.47
2019-04-21T20:26:58.581Z,4.60
2019-04-21T20:29:37.663Z,6.70
2019-04-21T20:32:09.813Z,5.67
2019-04-21T20:34:38.770Z,4.87
2019-04-21T20:37:14.790Z,4.90
2019-04-21T20:39:28.309Z,4.77
2019-04-21T20:42:08.671Z,4.57
2019-04-21T20:44:40.230Z,5.27
2019-04-21T20:47:07.443Z,3.97
2019-04-21T20:49:39.762Z,8.23
2019-04-21T20:52:18.721Z,5.67
2019-04-21T20:54:47.925Z,3.80
2019-04-21T20:57:24.134Z,4.80
2019-04-21T20:59:44.473Z,4.17
2019-04-21T21:02:21.945Z,4.43
2019-04-21T21:04:45.750Z,3.93
2019-04-21T21:07:41.686Z,4.10
2019-04-21T21:10:00.527Z,3.20
2019-04-21T21:12:35.899Z,4.80
2019-04-21T21:14:54.369Z,4.83
2019-04-21T21:17:48.233Z,3.87
2019-04-21T21:20:07.849Z,5.37
2019-04-21T21:22:33.029Z,4.63
2019-04-21T21:25:03.056Z,4.83
2019-04-21T21:27:31.921Z,3.87
2019-04-21T21:30:09.595Z,4.20
2019-04-21T21:32:38.579Z,5.10
2019-04-21T21:35:13.113Z,3.40
2019-04-21T21:37:44.092Z,3.47
2019-04-21T21:40:18.027Z,4.17
2019-04-21T21:42:33.898Z,3.90
2019-04-21T21:45:04.926Z,3.87
2019-04-21T21:47:48.599Z,4.07
2019-04-21T21:50:11.083Z,4.50
2019-04-21T21:52:44.948Z,4.30
2019-04-21T21:55:05.695Z,4.93
2019-04-21T21:57:43.900Z,3.20
2019-04-21T22:00:10.965Z,4.00
2019-04-21T22:02:45.536Z,4.13
2019-04-21T22:05:16.846Z,3.60
2019-04-21T22:07:42.511Z,3.57
2019-04-21T22:10:12.468Z,4.00
2019-04-21T22:12:50.549Z,3.30
2019-04-21T22:15:18.666Z,3.87
2019-04-21T22:18:01.289Z,3.67
2019-04-21T22:20:33.104Z,3.37
2019-04-21T22:22:56.387Z,3.63
2019-04-21T22:25:24.280Z,3.23
2019-04-21T22:27:50.772Z,4.30
2019-04-21T22:30:28.977Z,3.50
2019-04-21T22:33:14.535Z,3.60
2019-04-21T22:35:50.353Z,3.33
2019-04-21T22:38:28.392Z,3.80
2019-04-21T22:40:58.025Z,3.43
2019-04-21T22:43:26.560Z,3.00
2019-04-21T22:45:49.503Z,3.43
2019-04-21T22:48:23.051Z,3.63
2019-04-21T22:50:50.866Z,4.13
2019-04-21T22:53:21.406Z,3.37
2019-04-21T22:55:57.226Z,3.30
2019-04-21T22:58:29.311Z,3.10
2019-04-21T23:00:58.453Z,3.07
2019-04-21T23:03:28.547Z,3.70
2019-04-21T23:06:01.466Z,3.20
2019-04-21T23:08:34.418Z,3.07
2019-04-21T23:11:06.198Z,3.03
2019-04-21T23:13:32.755Z,3.40
2019-04-21T23:16:04.800Z,3.47
2019-04-21T23:18:49.139Z,4.17
2019-04-21T23:21:23.092Z,3.10
2019-04-21T23:23:57.219Z,3.13
2019-04-21T23:26:29.857Z,2.67
2019-04-21T23:29:03.005Z,3.77
2019-04-21T23:31:34.456Z,2.67
2019-04-21T23:33:44.148Z,3.73
2019-04-21T23:36:19.323Z,2.83
2019-04-21T23:38:49.425Z,2.97
2019-04-21T23:41:17.359Z,2.90
2019-04-21T23:43:53.157Z,3.40
2019-04-21T23:46:24.461Z,2.40
2019-04-21T23:49:07.526Z,3.20
2019-04-21T23:51:34.420Z,2.83
2019-04-21T23:53:53.514Z,3.07
2019-04-21T23:56:32.949Z,3.20
2019-04-21T23:59:02.636Z,2.70
